Time;durP1;ratioP1;P1;durP2;ratioP2;P2;SDS_P1;SDS_P2;PMS_P1;PMS_P2;Temp;Humidity;BMP_temperature;BMP_pressure;BME280_temperature;BME280_humidity;BME280_pressure;Samples;Min_cycle;Max_cycle;Signal;HPM_P1;HPM_P2
2023/02/10 00:01:46;;;;;;;61.70;32.80;;;;;;;;;;5033607;28;20410;-44
2023/02/10 00:04:13;;;;;;;46.30;22.42;;;;;;;;;;5032932;28;20505;-44
2023/02/10 00:06:40;;;;;;;39.00;22.92;;;;;;;;;;5033642;28;20631;-44
2023/02/10 00:09:06;;;;;;;52.38;25.30;;;;;;;;;;5032633;28;20229;-44
2023/02/10 00:14:18;;;;;;;44.85;24.33;;;;;;;;;;5032672;28;20261;-44
2023/02/10 00:16:44;;;;;;;56.95;25.60;;;;;;;;;;5033460;28;20628;-44
2023/02/10 00:19:10;;;;;;;40.70;21.58;;;;;;;;;;5033400;28;20176;-44
2023/02/10 00:21:38;;;;;;;47.40;23.67;;;;;;;;;;5033003;28;20242;-44
2023/02/10 00:24:04;;;;;;;44.72;24.40;;;;;;;;;;5032636;28;20426;-44
2023/02/10 00:26:30;;;;;;;46.67;25.67;;;;;;;;;;5033272;28;20218;-44
2023/02/10 00:28:56;;;;;;;45.57;24.03;;;;;;;;;;5033249;28;20648;-44
2023/02/10 00:31:22;;;;;;;42.80;22.87;;;;;;;;;;5033045;28;20468;-44
2023/02/10 00:33:48;;;;;;;48.00;24.23;;;;;;;;;;5032486;28;20418;-44
2023/02/10 00:36:14;;;;;;;50.93;24.87;;;;;;;;;;5032519;28;20171;-44
2023/02/10 00:38:41;;;;;;;50.30;25.13;;;;;;;;;;5032976;28;20514;-45
2023/02/10 00:41:12;;;;;;;47.33;26.58;;;;;;;;;;5032891;28;20636;-44
2023/02/10 00:43:39;;;;;;;46.83;25.67;;;;;;;;;;5032801;28;20179;-44
2023/02/10 00:46:06;;;;;;;47.10;23.20;;;;;;;;;;5032506;28;20234;-44
2023/02/10 00:48:32;;;;;;;45.50;25.38;;;;;;;;;;5032588;28;20227;-44
2023/02/10 00:50:58;;;;;;;48.08;25.75;;;;;;;;;;5031923;28;20644;-44
2023/02/10 00:53:24;;;;;;;43.85;23.77;;;;;;;;;;5032691;28;20175;-44
2023/02/10 00:55:50;;;;;;;50.47;25.70;;;;;;;;;;5031665;28;20184;-44
2023/02/10 00:58:16;;;;;;;50.33;26.47;;;;;;;;;;5028720;28;20199;-45
2023/02/10 01:00:42;;;;;;;43.80;23.85;;;;;;;;;;5032283;28;20414;-44
2023/02/10 01:03:08;;;;;;;48.10;24.33;;;;;;;;;;5032367;28;20185;-44
2023/02/10 01:05:34;;;;;;;51.20;24.73;;;;;;;;;;5031187;28;20462;-45
2023/02/10 01:08:00;;;;;;;41.63;24.30;;;;;;;;;;5032528;28;20435;-44
2023/02/10 01:10:26;;;;;;;51.53;23.73;;;;;;;;;;5032229;28;20403;-43
2023/02/10 01:12:52;;;;;;;45.90;24.63;;;;;;;;;;5032416;28;20593;-44
2023/02/10 01:15:18;;;;;;;47.93;25.40;;;;;;;;;;5031571;28;20477;-44
2023/02/10 01:17:44;;;;;;;49.53;25.30;;;;;;;;;;5032153;28;20434;-45
2023/02/10 01:20:10;;;;;;;49.00;26.20;;;;;;;;;;5031469;28;20422;-44
2023/02/10 01:22:36;;;;;;;48.60;25.02;;;;;;;;;;5032352;28;20422;-45
2023/02/10 01:25:03;;;;;;;51.03;24.50;;;;;;;;;;5031513;28;20290;-44
2023/02/10 01:27:29;;;;;;;53.63;25.00;;;;;;;;;;5032077;28;20203;-44
2023/02/10 01:29:54;;;;;;;47.43;24.13;;;;;;;;;;5032031;28;20544;-44
2023/02/10 01:32:20;;;;;;;59.97;26.90;;;;;;;;;;5031296;28;20498;-44
2023/02/10 01:34:46;;;;;;;55.70;27.33;;;;;;;;;;5031415;28;20422;-44
2023/02/10 01:37:12;;;;;;;53.60;24.63;;;;;;;;;;5031988;28;20481;-44
2023/02/10 01:39:38;;;;;;;46.57;24.70;;;;;;;;;;5032001;28;20418;-44
2023/02/10 01:42:04;;;;;;;49.70;25.03;;;;;;;;;;5031746;28;20422;-44
2023/02/10 01:44:30;;;;;;;57.57;27.40;;;;;;;;;;5031038;28;20458;-44
2023/02/10 01:46:56;;;;;;;47.80;24.33;;;;;;;;;;5031113;28;20440;-44
2023/02/10 01:49:25;;;;;;;53.50;26.67;;;;;;;;;;5031918;28;20445;-45
2023/02/10 01:51:59;;;;;;;53.50;26.42;;;;;;;;;;5031649;28;20171;-44
2023/02/10 01:54:30;;;;;;;56.15;26.92;;;;;;;;;;5031066;28;20176;-44
2023/02/10 01:56:56;;;;;;;43.08;23.85;;;;;;;;;;5025158;28;20207;-44
2023/02/10 01:59:22;;;;;;;53.33;26.00;;;;;;;;;;5031540;28;20172;-44
2023/02/10 02:01:49;;;;;;;47.30;25.15;;;;;;;;;;5030227;28;20187;-44
2023/02/10 02:04:15;;;;;;;52.00;27.75;;;;;;;;;;5028327;28;20183;-44
2023/02/10 02:06:42;;;;;;;46.70;25.07;;;;;;;;;;5031166;28;20180;-45
2023/02/10 02:09:08;;;;;;;52.00;26.30;;;;;;;;;;5029094;28;20464;-44
2023/02/10 02:11:42;;;;;;;47.53;24.90;;;;;;;;;;5031466;28;20172;-45
2023/02/10 02:14:26;;;;;;;61.65;27.95;;;;;;;;;;5030604;28;20187;-45
2023/02/10 02:16:58;;;;;;;47.42;25.35;;;;;;;;;;5031672;28;20174;-44
2023/02/10 02:19:36;;;;;;;45.97;25.48;;;;;;;;;;5031721;28;20167;-44
2023/02/10 02:22:08;;;;;;;54.20;26.50;;;;;;;;;;5031568;28;20183;-44
2023/02/10 02:24:37;;;;;;;55.30;26.65;;;;;;;;;;5030701;28;20588;-44
2023/02/10 02:27:24;;;;;;;63.13;28.08;;;;;;;;;;5033890;28;20183;-44
2023/02/10 02:29:50;;;;;;;54.67;26.90;;;;;;;;;;5051357;28;20170;-44
2023/02/10 02:32:20;;;;;;;51.80;26.67;;;;;;;;;;5051238;28;20242;-45
2023/02/10 02:35:15;;;;;;;58.45;26.00;;;;;;;;;;5051107;28;20398;-44
2023/02/10 02:37:42;;;;;;;52.30;26.35;;;;;;;;;;5032443;28;20203;-44
2023/02/10 02:40:09;;;;;;;55.45;27.30;;;;;;;;;;5024635;28;20192;-44
2023/02/10 02:42:35;;;;;;;50.97;25.80;;;;;;;;;;5029107;28;20266;-44
2023/02/10 02:45:01;;;;;;;61.65;26.98;;;;;;;;;;5029695;28;20195;-44
2023/02/10 02:47:37;;;;;;;53.77;27.40;;;;;;;;;;5028841;28;20203;-44
2023/02/10 02:50:11;;;;;;;50.50;27.83;;;;;;;;;;5031179;28;20437;-44
2023/02/10 02:52:37;;;;;;;57.45;28.30;;;;;;;;;;5031048;28;20259;-44
2023/02/10 02:55:09;;;;;;;47.20;24.90;;;;;;;;;;5030410;28;20266;-45
2023/02/10 02:57:45;;;;;;;57.47;26.65;;;;;;;;;;5031343;28;20484;-44
2023/02/10 03:00:13;;;;;;;60.30;28.92;;;;;;;;;;5030785;28;20218;-44
2023/02/10 03:02:41;;;;;;;56.20;28.27;;;;;;;;;;5031071;28;20258;-44
2023/02/10 03:05:07;;;;;;;58.92;28.92;;;;;;;;;;5030353;28;20202;-44
2023/02/10 03:07:33;;;;;;;55.53;27.98;;;;;;;;;;5031013;28;20679;-44
2023/02/10 03:09:59;;;;;;;50.30;27.20;;;;;;;;;;5031077;28;20171;-44
2023/02/10 03:12:25;;;;;;;52.60;25.70;;;;;;;;;;5031076;28;20399;-44
2023/02/10 03:14:51;;;;;;;62.50;29.83;;;;;;;;;;5030145;28;20232;-44
2023/02/10 03:17:17;;;;;;;59.10;28.10;;;;;;;;;;5031100;28;20461;-44
2023/02/10 03:19:43;;;;;;;63.67;29.35;;;;;;;;;;5031162;28;20402;-44
2023/02/10 03:22:09;;;;;;;66.90;30.03;;;;;;;;;;5032030;28;20182;-44
2023/02/10 03:24:35;;;;;;;66.63;29.90;;;;;;;;;;5033959;28;20460;-45
2023/02/10 03:27:01;;;;;;;54.60;28.60;;;;;;;;;;5034431;28;20435;-45
2023/02/10 03:29:27;;;;;;;59.80;29.58;;;;;;;;;;5034641;28;20442;-44
2023/02/10 03:31:53;;;;;;;58.42;31.42;;;;;;;;;;5034565;28;20171;-44
2023/02/10 03:34:19;;;;;;;64.07;29.57;;;;;;;;;;5052262;28;20175;-45
2023/02/10 03:36:45;;;;;;;59.50;28.77;;;;;;;;;;5054388;28;20469;-44
2023/02/10 03:39:11;;;;;;;59.90;30.03;;;;;;;;;;5054331;28;20254;-44
2023/02/10 03:41:37;;;;;;;66.20;31.50;;;;;;;;;;5053973;28;20409;-44
2023/02/10 03:44:03;;;;;;;65.37;30.77;;;;;;;;;;5053557;28;20413;-44
2023/02/10 03:46:29;;;;;;;67.65;30.75;;;;;;;;;;5054226;28;20401;-44
2023/02/10 03:48:55;;;;;;;60.93;30.03;;;;;;;;;;5054276;28;20568;-45
2023/02/10 03:51:21;;;;;;;63.03;29.40;;;;;;;;;;5053914;28;20843;-44
2023/02/10 03:53:47;;;;;;;64.63;29.70;;;;;;;;;;5053355;28;20401;-45
2023/02/10 03:56:13;;;;;;;57.50;30.20;;;;;;;;;;5039527;28;20442;-44
2023/02/10 03:58:39;;;;;;;55.27;29.27;;;;;;;;;;5034000;28;20488;-45
2023/02/10 04:01:09;;;;;;;57.07;30.60;;;;;;;;;;5029396;28;20422;-45
2023/02/10 04:03:35;;;;;;;55.97;28.73;;;;;;;;;;5033827;28;20410;-44
2023/02/10 04:06:01;;;;;;;63.23;29.97;;;;;;;;;;5033311;28;20289;-44
2023/02/10 04:08:26;;;;;;;64.23;29.30;;;;;;;;;;5033863;28;20449;-45
2023/02/10 04:10:52;;;;;;;68.07;31.37;;;;;;;;;;5033552;28;20485;-44
2023/02/10 04:13:19;;;;;;;65.97;30.83;;;;;;;;;;5033838;28;20399;-45
2023/02/10 04:15:45;;;;;;;67.35;29.85;;;;;;;;;;5033104;28;20428;-44
2023/02/10 04:18:11;;;;;;;68.45;29.73;;;;;;;;;;5033666;28;20262;-44
2023/02/10 04:20:37;;;;;;;66.07;30.73;;;;;;;;;;5033452;28;20247;-44
2023/02/10 04:23:03;;;;;;;56.83;30.07;;;;;;;;;;5033665;28;20898;-45
2023/02/10 04:25:29;;;;;;;62.17;30.17;;;;;;;;;;5032794;28;20492;-44
2023/02/10 04:27:55;;;;;;;71.33;30.37;;;;;;;;;;5033519;28;20598;-44
2023/02/10 04:30:21;;;;;;;62.87;30.20;;;;;;;;;;5033253;28;20403;-44
2023/02/10 04:32:47;;;;;;;72.07;29.70;;;;;;;;;;5033453;28;20481;-45
2023/02/10 04:35:13;;;;;;;56.27;29.27;;;;;;;;;;5032819;28;20402;-44
2023/02/10 04:37:39;;;;;;;56.97;29.60;;;;;;;;;;5033381;28;20422;-44
2023/02/10 04:40:05;;;;;;;65.40;29.37;;;;;;;;;;5032944;28;20501;-44
2023/02/10 04:42:31;;;;;;;62.90;30.67;;;;;;;;;;5033424;28;20414;-44
2023/02/10 04:45:00;;;;;;;78.10;31.80;;;;;;;;;;5032451;28;20195;-44
2023/02/10 04:47:27;;;;;;;61.38;28.75;;;;;;;;;;5033112;28;20453;-44
2023/02/10 04:49:53;;;;;;;65.10;30.42;;;;;;;;;;5032946;28;20635;-44
2023/02/10 04:52:20;;;;;;;88.93;31.30;;;;;;;;;;5033025;28;20214;-44
2023/02/10 04:54:46;;;;;;;66.65;30.58;;;;;;;;;;5032080;28;20175;-44
2023/02/10 04:57:12;;;;;;;74.67;32.60;;;;;;;;;;5032975;28;20195;-44
2023/02/10 04:59:38;;;;;;;55.00;28.98;;;;;;;;;;5032896;28;20927;-44
2023/02/10 05:02:04;;;;;;;69.30;30.77;;;;;;;;;;5032747;28;20172;-44
2023/02/10 05:04:30;;;;;;;72.03;32.28;;;;;;;;;;5032127;28;20452;-44
2023/02/10 05:06:58;;;;;;;63.65;31.67;;;;;;;;;;5032631;28;20198;-44
2023/02/10 05:09:24;;;;;;;71.55;29.83;;;;;;;;;;5032714;28;20190;-44
2023/02/10 05:11:50;;;;;;;64.07;31.35;;;;;;;;;;5032496;28;20172;-44
2023/02/10 05:14:16;;;;;;;71.93;32.45;;;;;;;;;;5031786;28;20180;-44
2023/02/10 05:16:42;;;;;;;70.10;32.40;;;;;;;;;;5032505;28;20248;-44
2023/02/10 05:19:09;;;;;;;69.80;33.10;;;;;;;;;;5032585;28;20457;-44
2023/02/10 05:21:35;;;;;;;79.05;32.92;;;;;;;;;;5032264;28;20802;-44
2023/02/10 05:24:01;;;;;;;66.90;32.80;;;;;;;;;;5031798;28;20267;-44
2023/02/10 05:26:27;;;;;;;64.13;33.70;;;;;;;;;;5032272;28;20583;-44
2023/02/10 05:28:53;;;;;;;63.57;32.67;;;;;;;;;;5032391;28;20759;-44
2023/02/10 05:31:19;;;;;;;65.88;31.90;;;;;;;;;;5032165;28;20387;-44
2023/02/10 05:33:45;;;;;;;73.05;33.13;;;;;;;;;;5031596;28;20699;-44
2023/02/10 05:36:11;;;;;;;71.83;31.60;;;;;;;;;;5032040;28;20171;-44
2023/02/10 05:38:37;;;;;;;68.37;30.37;;;;;;;;;;5032211;28;20964;-44
2023/02/10 05:41:03;;;;;;;75.20;32.25;;;;;;;;;;5031793;28;20406;-44
2023/02/10 05:43:29;;;;;;;72.32;32.80;;;;;;;;;;5032056;28;20189;-44
2023/02/10 05:45:55;;;;;;;71.97;34.57;;;;;;;;;;5031110;28;20693;-44
2023/02/10 05:48:21;;;;;;;78.13;34.70;;;;;;;;;;5032817;28;20790;-44
2023/02/10 05:50:50;;;;;;;74.87;34.40;;;;;;;;;;5031735;28;20867;-44
2023/02/10 05:53:16;;;;;;;70.63;34.15;;;;;;;;;;5032161;28;20402;-44
2023/02/10 05:55:42;;;;;;;76.60;31.67;;;;;;;;;;5031315;28;20270;-44
2023/02/10 05:58:08;;;;;;;70.00;33.10;;;;;;;;;;5032034;28;20481;-44
2023/02/10 06:00:34;;;;;;;75.30;33.30;;;;;;;;;;5031715;28;20413;-44
2023/02/10 06:03:00;;;;;;;64.63;30.67;;;;;;;;;;5031874;28;20498;-44
2023/02/10 06:05:26;;;;;;;75.53;31.67;;;;;;;;;;5031042;28;20503;-44
2023/02/10 06:07:54;;;;;;;71.20;32.73;;;;;;;;;;5031205;28;20427;-44
2023/02/10 06:10:20;;;;;;;72.57;33.22;;;;;;;;;;5030950;28;20456;-44
2023/02/10 06:12:46;;;;;;;70.67;31.97;;;;;;;;;;5031304;28;20167;-44
2023/02/10 06:15:12;;;;;;;68.80;31.70;;;;;;;;;;5030470;28;20506;-44
2023/02/10 06:17:38;;;;;;;72.57;32.20;;;;;;;;;;5031067;28;20855;-44
2023/02/10 06:20:04;;;;;;;75.88;34.03;;;;;;;;;;5030944;28;20781;-44
2023/02/10 06:22:30;;;;;;;71.05;31.60;;;;;;;;;;5029911;28;20225;-44
2023/02/10 06:24:56;;;;;;;73.13;32.63;;;;;;;;;;5030575;28;20196;-44
2023/02/10 06:27:22;;;;;;;67.93;31.50;;;;;;;;;;5030922;28;20422;-44
2023/02/10 06:29:48;;;;;;;75.03;32.17;;;;;;;;;;5030947;28;20398;-44
2023/02/10 06:32:14;;;;;;;75.47;32.23;;;;;;;;;;5031120;28;20970;-44
2023/02/10 06:34:41;;;;;;;65.33;30.97;;;;;;;;;;5030073;28;20917;-44
2023/02/10 06:37:08;;;;;;;73.68;33.22;;;;;;;;;;5030950;28;20784;-44
2023/02/10 06:39:34;;;;;;;74.00;34.05;;;;;;;;;;5031318;28;20194;-45
2023/02/10 06:42:00;;;;;;;80.30;33.77;;;;;;;;;;5031400;28;20644;-45
2023/02/10 06:44:26;;;;;;;65.10;31.05;;;;;;;;;;5030746;28;20405;-44
2023/02/10 06:46:52;;;;;;;76.33;31.90;;;;;;;;;;5031257;28;20168;-44
2023/02/10 06:49:18;;;;;;;87.33;33.90;;;;;;;;;;5031369;28;20412;-44
2023/02/10 06:51:44;;;;;;;79.47;33.20;;;;;;;;;;5031636;28;20771;-44
2023/02/10 06:54:10;;;;;;;75.20;33.30;;;;;;;;;;5030845;28;20480;-44
2023/02/10 06:56:36;;;;;;;70.57;33.05;;;;;;;;;;5031351;28;20406;-44
2023/02/10 06:59:02;;;;;;;73.87;31.20;;;;;;;;;;5035224;28;20701;-44
2023/02/10 07:01:28;;;;;;;72.77;32.20;;;;;;;;;;5034784;28;20398;-44
2023/02/10 07:03:54;;;;;;;77.27;32.87;;;;;;;;;;5034612;28;20413;-44
2023/02/10 07:06:20;;;;;;;73.13;30.50;;;;;;;;;;5034024;28;20450;-44
2023/02/10 07:08:46;;;;;;;77.97;33.25;;;;;;;;;;5033603;28;20439;-44
2023/02/10 07:11:12;;;;;;;75.13;32.63;;;;;;;;;;5034676;28;20575;-44
2023/02/10 07:13:38;;;;;;;85.67;32.37;;;;;;;;;;5035931;28;20460;-44
2023/02/10 07:16:04;;;;;;;67.88;30.45;;;;;;;;;;5040692;28;20434;-44
2023/02/10 07:18:30;;;;;;;65.47;29.52;;;;;;;;;;5037413;28;20302;-46
2023/02/10 07:20:56;;;;;;;72.28;31.67;;;;;;;;;;5034536;28;20185;-44
2023/02/10 07:23:22;;;;;;;65.15;29.27;;;;;;;;;;5036123;28;20674;-46
2023/02/10 07:25:49;;;;;;;70.72;32.22;;;;;;;;;;5038404;28;20237;-42
2023/02/10 07:28:15;;;;;;;82.23;31.17;;;;;;;;;;5032983;28;20750;-45
2023/02/10 07:30:41;;;;;;;81.17;32.17;;;;;;;;;;5035467;28;20406;-44
2023/02/10 07:33:07;;;;;;;69.63;30.67;;;;;;;;;;5029288;28;20414;-44
2023/02/10 07:35:33;;;;;;;60.80;29.00;;;;;;;;;;5032855;28;20214;-44
2023/02/10 07:37:59;;;;;;;76.60;32.07;;;;;;;;;;5034041;28;20195;-44
2023/02/10 07:40:28;;;;;;;72.80;30.67;;;;;;;;;;5031798;28;20415;-43
2023/02/10 07:42:54;;;;;;;71.43;31.63;;;;;;;;;;5024711;28;20793;-42
2023/02/10 07:45:20;;;;;;;67.10;31.33;;;;;;;;;;5028737;28;20195;-44
2023/02/10 07:47:46;;;;;;;72.70;29.07;;;;;;;;;;5033730;28;20199;-41
2023/02/10 07:50:12;;;;;;;70.67;31.93;;;;;;;;;;5032722;28;20444;-42
2023/02/10 07:52:40;;;;;;;77.10;29.30;;;;;;;;;;5032757;28;20445;-42
2023/02/10 07:55:07;;;;;;;68.05;28.42;;;;;;;;;;5033257;28;20455;-43
2023/02/10 07:57:33;;;;;;;62.22;29.30;;;;;;;;;;5029650;28;20279;-44
2023/02/10 07:59:59;;;;;;;60.83;28.83;;;;;;;;;;5033669;28;20310;-46
2023/02/10 08:02:25;;;;;;;64.22;32.13;;;;;;;;;;5033769;28;20406;-46
2023/02/10 08:04:53;;;;;;;68.93;29.83;;;;;;;;;;5033027;28;20199;-42
2023/02/10 08:07:19;;;;;;;62.75;28.00;;;;;;;;;;5032584;28;20414;-42
2023/02/10 08:09:45;;;;;;;62.03;26.90;;;;;;;;;;5033471;28;20548;-43
2023/02/10 08:12:11;;;;;;;59.40;28.60;;;;;;;;;;5033545;28;20417;-46
2023/02/10 08:14:37;;;;;;;59.03;29.73;;;;;;;;;;5032468;28;20425;-42
2023/02/10 08:17:03;;;;;;;49.17;25.20;;;;;;;;;;5033557;28;20464;-42
2023/02/10 08:19:29;;;;;;;60.10;28.58;;;;;;;;;;5032763;28;20439;-42
2023/02/10 08:21:55;;;;;;;64.00;27.42;;;;;;;;;;5033312;28;20226;-42
2023/02/10 08:24:21;;;;;;;59.08;27.25;;;;;;;;;;5032612;28;20180;-41
2023/02/10 08:26:47;;;;;;;53.33;27.63;;;;;;;;;;5033276;28;20237;-42
2023/02/10 08:29:13;;;;;;;54.07;27.07;;;;;;;;;;5033245;28;20413;-42
2023/02/10 08:31:39;;;;;;;55.00;27.20;;;;;;;;;;5032949;28;20804;-43
2023/02/10 08:34:06;;;;;;;50.77;26.97;;;;;;;;;;5031903;28;20460;-43
2023/02/10 08:36:32;;;;;;;53.53;26.20;;;;;;;;;;5033120;28;20409;-41
2023/02/10 08:38:58;;;;;;;52.77;26.23;;;;;;;;;;5032001;28;20462;-47
2023/02/10 08:41:25;;;;;;;49.70;26.00;;;;;;;;;;5031683;28;20475;-46
2023/02/10 08:43:51;;;;;;;55.43;27.60;;;;;;;;;;5031881;28;20414;-48
2023/02/10 08:46:17;;;;;;;51.33;27.00;;;;;;;;;;5031995;28;20994;-47
2023/02/10 08:48:43;;;;;;;53.73;28.20;;;;;;;;;;5032739;28;20537;-47
2023/02/10 08:51:10;;;;;;;46.87;26.17;;;;;;;;;;5032898;28;20469;-48
2023/02/10 08:53:36;;;;;;;61.70;26.30;;;;;;;;;;5032709;28;20423;-48
2023/02/10 08:56:07;;;;;;;51.13;26.00;;;;;;;;;;5028659;28;20420;-46
2023/02/10 08:58:33;;;;;;;59.20;25.70;;;;;;;;;;5031598;28;20430;-47
2023/02/10 09:00:59;;;;;;;54.90;27.07;;;;;;;;;;5032528;28;20408;-46
2023/02/10 09:03:26;;;;;;;55.60;28.80;;;;;;;;;;5032244;28;20922;-48
2023/02/10 09:05:52;;;;;;;54.60;25.85;;;;;;;;;;5031984;28;20969;-49
2023/02/10 09:08:19;;;;;;;51.33;25.17;;;;;;;;;;5032462;28;20227;-47
2023/02/10 09:10:45;;;;;;;58.23;27.63;;;;;;;;;;5032152;28;20416;-46
2023/02/10 09:13:11;;;;;;;62.65;26.38;;;;;;;;;;5032470;28;20406;-48
2023/02/10 09:15:38;;;;;;;65.95;26.65;;;;;;;;;;5031850;28;20192;-48
2023/02/10 09:18:04;;;;;;;54.20;24.83;;;;;;;;;;5032337;28;20204;-45
2023/02/10 09:20:30;;;;;;;56.77;25.97;;;;;;;;;;5030919;28;20949;-45
2023/02/10 09:22:56;;;;;;;57.77;27.00;;;;;;;;;;5032461;28;20446;-46
2023/02/10 09:25:22;;;;;;;49.53;25.80;;;;;;;;;;5031102;28;20973;-48
2023/02/10 09:27:48;;;;;;;55.33;27.33;;;;;;;;;;5032377;28;20784;-47
2023/02/10 09:30:15;;;;;;;55.07;26.83;;;;;;;;;;5032145;28;20409;-47
2023/02/10 09:32:40;;;;;;;62.33;28.27;;;;;;;;;;5032216;28;20430;-46
2023/02/10 09:35:06;;;;;;;66.37;27.70;;;;;;;;;;5031671;28;20839;-48
2023/02/10 09:37:32;;;;;;;52.67;26.03;;;;;;;;;;5032239;28;20481;-48
2023/02/10 09:39:58;;;;;;;62.17;27.00;;;;;;;;;;5031886;28;20404;-48
2023/02/10 09:42:43;;;;;;;49.87;26.00;;;;;;;;;;5032291;28;20404;-48
2023/02/10 09:45:25;;;;;;;51.97;26.80;;;;;;;;;;5022931;28;20467;-47
2023/02/10 09:48:14;;;;;;;56.17;28.77;;;;;;;;;;5031602;28;20447;-46
2023/02/10 09:50:48;;;;;;;52.20;23.97;;;;;;;;;;5026221;28;20451;-47
2023/02/10 09:53:18;;;;;;;55.10;26.60;;;;;;;;;;5031953;28;20396;-47
2023/02/10 09:55:49;;;;;;;56.40;27.47;;;;;;;;;;5029948;28;20422;-46
2023/02/10 09:58:22;;;;;;;53.30;26.33;;;;;;;;;;5031898;28;20489;-47
2023/02/10 10:00:50;;;;;;;59.97;25.90;;;;;;;;;;5031349;28;20754;-47
2023/02/10 10:03:18;;;;;;;59.13;25.30;;;;;;;;;;5031699;28;20402;-47
2023/02/10 10:05:53;;;;;;;54.40;26.57;;;;;;;;;;5030770;28;20545;-44
2023/02/10 10:08:28;;;;;;;58.47;27.17;;;;;;;;;;5032142;28;20416;-44
2023/02/10 10:10:56;;;;;;;53.77;26.73;;;;;;;;;;5031505;28;20399;-44
2023/02/10 10:13:24;;;;;;;51.00;24.83;;;;;;;;;;5031137;28;20415;-44
2023/02/10 10:15:58;;;;;;;51.80;26.20;;;;;;;;;;5030828;28;20488;-44
2023/02/10 10:18:43;;;;;;;60.97;26.60;;;;;;;;;;5031619;28;20424;-44
2023/02/10 10:21:23;;;;;;;58.93;24.33;;;;;;;;;;5031406;28;20404;-44
2023/02/10 10:24:16;;;;;;;54.87;26.83;;;;;;;;;;5030671;28;20890;-45
2023/02/10 10:26:47;;;;;;;49.67;23.03;;;;;;;;;;5023027;28;20472;-44
2023/02/10 10:29:32;;;;;;;47.87;25.27;;;;;;;;;;5031564;28;20436;-44
2023/02/10 10:32:07;;;;;;;49.67;26.00;;;;;;;;;;5034086;28;20406;-44
2023/02/10 10:34:35;;;;;;;50.23;25.07;;;;;;;;;;5034882;28;20445;-44
2023/02/10 10:37:05;;;;;;;50.80;25.23;;;;;;;;;;5035683;28;20430;-44
2023/02/10 10:39:36;;;;;;;50.63;24.70;;;;;;;;;;5035457;28;20398;-44
2023/02/10 10:42:04;;;;;;;44.80;23.10;;;;;;;;;;5035454;28;20408;-44
2023/02/10 10:44:31;;;;;;;46.53;26.47;;;;;;;;;;5033961;28;20416;-45
2023/02/10 10:47:08;;;;;;;42.37;23.17;;;;;;;;;;5034532;28;20875;-44
2023/02/10 10:49:35;;;;;;;48.20;25.10;;;;;;;;;;5032968;28;20417;-44
2023/02/10 10:52:01;;;;;;;46.57;22.67;;;;;;;;;;5035114;28;20417;-45
2023/02/10 10:54:27;;;;;;;43.60;23.00;;;;;;;;;;5034641;28;20478;-44
2023/02/10 10:57:04;;;;;;;48.33;23.57;;;;;;;;;;5035050;28;20479;-44
2023/02/10 10:59:41;;;;;;;42.60;24.00;;;;;;;;;;5035348;28;20422;-44
2023/02/10 11:02:16;;;;;;;48.50;24.10;;;;;;;;;;5034907;28;20403;-44
2023/02/10 11:04:44;;;;;;;43.73;22.50;;;;;;;;;;5033178;28;20529;-44
2023/02/10 11:07:11;;;;;;;49.17;23.07;;;;;;;;;;5033830;28;20801;-44
2023/02/10 11:09:41;;;;;;;39.43;21.67;;;;;;;;;;5032712;28;20491;-45
2023/02/10 11:12:20;;;;;;;43.93;23.37;;;;;;;;;;5032782;28;20404;-44
2023/02/10 11:14:48;;;;;;;39.10;21.80;;;;;;;;;;5032420;28;20891;-45
2023/02/10 11:17:19;;;;;;;39.47;21.60;;;;;;;;;;5032354;28;20435;-44
2023/02/10 11:19:53;;;;;;;41.70;23.33;;;;;;;;;;5034191;28;20471;-45
2023/02/10 11:22:21;;;;;;;44.17;23.50;;;;;;;;;;5034225;28;20936;-44
2023/02/10 11:24:54;;;;;;;44.87;22.23;;;;;;;;;;5033724;28;20972;-44
2023/02/10 11:27:21;;;;;;;42.90;23.30;;;;;;;;;;5034363;28;20430;-44
2023/02/10 11:29:54;;;;;;;38.57;20.97;;;;;;;;;;5033877;28;20408;-45
2023/02/10 11:32:22;;;;;;;44.10;23.07;;;;;;;;;;5034343;28;20437;-44
2023/02/10 11:34:49;;;;;;;46.70;23.43;;;;;;;;;;5033994;28;20824;-45
2023/02/10 11:37:23;;;;;;;41.27;22.37;;;;;;;;;;5034458;28;20440;-45
2023/02/10 11:39:49;;;;;;;38.03;21.80;;;;;;;;;;5034391;28;20916;-45
2023/02/10 11:42:22;;;;;;;42.10;23.43;;;;;;;;;;5034124;28;20410;-44
2023/02/10 11:44:58;;;;;;;37.67;23.50;;;;;;;;;;5033423;28;20523;-44
2023/02/10 11:47:25;;;;;;;40.13;23.53;;;;;;;;;;5035112;28;20434;-42
2023/02/10 11:49:51;;;;;;;45.20;25.93;;;;;;;;;;5034112;28;20885;-46
2023/02/10 11:52:19;;;;;;;46.23;24.17;;;;;;;;;;5034304;28;20493;-42
2023/02/10 11:54:45;;;;;;;36.00;23.03;;;;;;;;;;5033438;28;20402;-42
2023/02/10 12:00:06;;;;;;;42.40;23.00;;;;;;;;;;5034054;28;20502;-43
2023/02/10 12:02:32;;;;;;;47.37;24.47;;;;;;;;;;5034041;28;20898;-47
2023/02/10 12:04:58;;;;;;;40.53;21.57;;;;;;;;;;5033062;28;20487;-42
2023/02/10 12:07:34;;;;;;;45.80;24.50;;;;;;;;;;5033959;28;20491;-42
2023/02/10 12:10:09;;;;;;;46.97;23.07;;;;;;;;;;5033688;28;20884;-42
2023/02/10 12:12:43;;;;;;;50.33;24.30;;;;;;;;;;5034054;28;20516;-42
2023/02/10 12:15:24;;;;;;;42.80;23.63;;;;;;;;;;5033174;28;20459;-42
2023/02/10 12:18:08;;;;;;;44.10;21.87;;;;;;;;;;5033828;28;20477;-44
2023/02/10 12:20:37;;;;;;;34.70;21.50;;;;;;;;;;5033395;28;20409;-45
2023/02/10 12:23:22;;;;;;;38.93;22.10;;;;;;;;;;5033705;28;20407;-43
2023/02/10 12:26:02;;;;;;;37.90;20.73;;;;;;;;;;5032979;28;20441;-46
2023/02/10 12:28:37;;;;;;;31.10;20.60;;;;;;;;;;5033644;28;20762;-43
2023/02/10 12:31:24;;;;;;;42.80;21.97;;;;;;;;;;5033346;28;20390;-43
2023/02/10 12:33:50;;;;;;;42.83;21.30;;;;;;;;;;5032764;28;20414;-42
2023/02/10 12:36:25;;;;;;;34.47;19.50;;;;;;;;;;5033571;28;20410;-42
2023/02/10 12:38:57;;;;;;;38.87;19.67;;;;;;;;;;5033408;28;20433;-44
2023/02/10 12:41:27;;;;;;;32.90;18.70;;;;;;;;;;5033099;28;20489;-46
2023/02/10 12:44:12;;;;;;;27.57;16.87;;;;;;;;;;5032753;28;20805;-42
2023/02/10 12:46:50;;;;;;;31.03;17.90;;;;;;;;;;5032777;28;20556;-44
2023/02/10 12:49:26;;;;;;;33.90;17.27;;;;;;;;;;5033270;28;20406;-43
2023/02/10 12:51:52;;;;;;;33.20;17.43;;;;;;;;;;5032984;28;20381;-42
2023/02/10 12:54:20;;;;;;;33.47;17.00;;;;;;;;;;5031454;28;20759;-43
2023/02/10 12:56:52;;;;;;;33.27;19.10;;;;;;;;;;5032829;28;20426;-44
2023/02/10 12:59:29;;;;;;;32.47;16.33;;;;;;;;;;5031979;28;20420;-42
2023/02/10 13:02:15;;;;;;;36.50;16.80;;;;;;;;;;5032862;28;20483;-42
2023/02/10 13:04:45;;;;;;;35.10;15.23;;;;;;;;;;5032149;28;20415;-42
2023/02/10 13:07:21;;;;;;;29.03;14.20;;;;;;;;;;5032854;28;20914;-46
2023/02/10 13:10:10;;;;;;;30.30;13.67;;;;;;;;;;5032903;28;20426;-42
2023/02/10 13:12:41;;;;;;;22.90;14.27;;;;;;;;;;5022532;28;20415;-43
2023/02/10 13:15:14;;;;;;;24.43;13.30;;;;;;;;;;5031893;28;20422;-42
2023/02/10 13:17:44;;;;;;;26.47;14.87;;;;;;;;;;5032684;28;20514;-43
2023/02/10 13:20:20;;;;;;;27.70;14.47;;;;;;;;;;5032689;28;20414;-47
2023/02/10 13:22:50;;;;;;;24.23;14.10;;;;;;;;;;5032572;28;20405;-42
2023/02/10 13:25:24;;;;;;;27.00;13.70;;;;;;;;;;5031860;28;20450;-42
2023/02/10 13:27:52;;;;;;;20.90;12.93;;;;;;;;;;5032466;28;20430;-43
2023/02/10 13:30:37;;;;;;;24.07;13.30;;;;;;;;;;5032559;28;20417;-46
2023/02/10 13:33:22;;;;;;;22.30;13.03;;;;;;;;;;5032400;28;20409;-43
2023/02/10 13:35:49;;;;;;;22.23;13.80;;;;;;;;;;5031781;28;20404;-42
2023/02/10 13:38:17;;;;;;;28.07;14.97;;;;;;;;;;5032255;28;20419;-42
2023/02/10 13:40:48;;;;;;;28.63;14.70;;;;;;;;;;5032409;28;20407;-46
2023/02/10 13:43:33;;;;;;;25.97;14.60;;;;;;;;;;5032240;28;20408;-42
2023/02/10 13:46:00;;;;;;;26.17;16.43;;;;;;;;;;5031633;28;20454;-42
2023/02/10 13:48:29;;;;;;;24.10;14.27;;;;;;;;;;5032202;28;20445;-44
2023/02/10 13:51:05;;;;;;;24.30;14.70;;;;;;;;;;5032515;28;20436;-43
2023/02/10 13:53:34;;;;;;;29.63;15.10;;;;;;;;;;5032133;28;20368;-42
2023/02/10 13:56:03;;;;;;;29.87;15.43;;;;;;;;;;5030668;28;20969;-47
2023/02/10 13:58:32;;;;;;;30.73;13.93;;;;;;;;;;5030630;28;20489;-43
2023/02/10 14:00:58;;;;;;;27.20;15.47;;;;;;;;;;5031909;28;20377;-42
2023/02/10 14:03:25;;;;;;;23.23;12.60;;;;;;;;;;5031973;28;20834;-42
2023/02/10 14:05:52;;;;;;;25.07;12.80;;;;;;;;;;5030919;28;20467;-42
2023/02/10 14:08:30;;;;;;;26.63;13.40;;;;;;;;;;5031819;28;20436;-42
2023/02/10 14:10:57;;;;;;;26.33;15.27;;;;;;;;;;5031614;28;20399;-47
2023/02/10 14:13:27;;;;;;;28.60;13.23;;;;;;;;;;5031731;28;20402;-42
2023/02/10 14:15:55;;;;;;;23.30;14.80;;;;;;;;;;5031047;28;20420;-42
2023/02/10 14:18:24;;;;;;;24.50;13.07;;;;;;;;;;5030447;28;20471;-44
2023/02/10 14:20:59;;;;;;;22.90;12.60;;;;;;;;;;5031734;28;20417;-42
2023/02/10 14:23:26;;;;;;;28.63;13.47;;;;;;;;;;5031398;28;20408;-42
2023/02/10 14:26:03;;;;;;;22.80;13.80;;;;;;;;;;5030879;28;20492;-43
2023/02/10 14:28:32;;;;;;;35.60;15.93;;;;;;;;;;5031525;28;20430;-41
2023/02/10 14:31:00;;;;;;;25.77;14.80;;;;;;;;;;5031556;28;20892;-42